createdAt,value
2016-07-06T00:00:26.445Z,13.73
2016-07-06T00:01:26.685Z,13.76
2016-07-06T00:02:26.535Z,13.77
2016-07-06T00:03:26.446Z,13.71
2016-07-06T00:04:26.449Z,13.61
2016-07-06T00:05:26.482Z,13.58
2016-07-06T00:06:26.488Z,13.59
2016-07-06T00:07:26.501Z,13.56
2016-07-06T00:08:26.477Z,13.54
2016-07-06T00:09:26.499Z,13.38
2016-07-06T00:10:26.477Z,13.46
2016-07-06T00:11:26.496Z,13.27
2016-07-06T00:12:26.474Z,13.43
2016-07-06T00:13:26.488Z,13.4
2016-07-06T00:14:26.503Z,13.3
2016-07-06T00:15:26.484Z,13.29
2016-07-06T00:16:26.507Z,13.3
2016-07-06T00:17:26.474Z,13.37
2016-07-06T00:18:26.509Z,13.29
2016-07-06T00:19:26.659Z,13.3
2016-07-06T00:20:26.498Z,13.38
2016-07-06T00:21:26.520Z,13.25
2016-07-06T00:22:26.598Z,13.15
2016-07-06T00:23:26.483Z,13.24
2016-07-06T00:24:26.458Z,13.18
2016-07-06T00:25:26.639Z,13.21
2016-07-06T00:26:26.472Z,13.17
2016-07-06T00:27:26.497Z,13.18
2016-07-06T00:28:26.574Z,13.03
2016-07-06T00:29:26.573Z,13.07
2016-07-06T00:30:26.601Z,13.12
2016-07-06T00:31:26.597Z,13.06
2016-07-06T00:32:26.546Z,13.14
2016-07-06T00:33:26.510Z,13.11
2016-07-06T00:34:26.578Z,13.04
2016-07-06T00:35:26.562Z,13.15
2016-07-06T00:36:26.608Z,13.24
2016-07-06T00:37:26.540Z,13
2016-07-06T00:38:26.506Z,13.09
2016-07-06T00:39:26.535Z,13.09
2016-07-06T00:40:26.692Z,13.09
2016-07-06T00:41:26.511Z,13.12
2016-07-06T00:42:26.480Z,13.24
2016-07-06T00:43:26.736Z,13.18
2016-07-06T00:44:26.513Z,13.04
2016-07-06T00:45:26.561Z,13.15
2016-07-06T00:46:26.539Z,13.03
2016-07-06T00:47:26.514Z,13.12
2016-07-06T00:48:26.491Z,13.04
2016-07-06T00:49:26.630Z,12.95
2016-07-06T00:50:26.490Z,13.02
2016-07-06T00:51:26.573Z,13.02
2016-07-06T00:52:26.986Z,13.09
2016-07-06T00:53:26.485Z,12.99
2016-07-06T00:54:26.503Z,13.02
2016-07-06T00:55:26.732Z,12.99
2016-07-06T00:56:26.530Z,13.04
2016-07-06T00:57:26.511Z,13.11
2016-07-06T00:58:26.515Z,13.02
2016-07-06T00:59:26.483Z,12.89
2016-07-06T01:00:26.539Z,13.04
2016-07-06T01:01:26.508Z,12.93
2016-07-06T01:02:26.536Z,12.96
2016-07-06T01:03:26.557Z,13.04
2016-07-06T01:04:26.539Z,13.06
2016-07-06T01:05:26.573Z,13.04
2016-07-06T01:06:26.543Z,12.95
2016-07-06T01:07:26.676Z,13.02
2016-07-06T01:08:26.489Z,13.03
2016-07-06T01:09:26.718Z,13.02
2016-07-06T01:10:26.910Z,13.09
2016-07-06T01:11:26.566Z,13.11
2016-07-06T01:12:26.568Z,13.03
2016-07-06T01:13:27.109Z,13.02
2016-07-06T01:14:26.518Z,13.09
2016-07-06T01:15:26.507Z,13.07
2016-07-06T01:16:26.714Z,13.06
2016-07-06T01:17:26.523Z,13.04
2016-07-06T01:18:26.509Z,13.18
2016-07-06T01:19:26.759Z,13.11
2016-07-06T01:20:26.493Z,13.09
2016-07-06T01:21:26.510Z,13.07
2016-07-06T01:22:26.676Z,12.93
2016-07-06T01:23:26.492Z,13.02
2016-07-06T01:24:26.509Z,13.06
2016-07-06T01:25:26.582Z,13.04
2016-07-06T01:26:26.598Z,13.04
2016-07-06T01:27:26.588Z,13.15
2016-07-06T01:28:26.878Z,13.12
2016-07-06T01:29:26.584Z,13.07
2016-07-06T01:30:26.568Z,13.12
2016-07-06T01:31:26.637Z,13.09
2016-07-06T01:32:26.643Z,13.09
2016-07-06T01:33:26.575Z,13.11
2016-07-06T01:34:27.264Z,13.15
2016-07-06T01:35:26.535Z,13.17
2016-07-06T01:36:26.557Z,13.21
2016-07-06T01:37:26.588Z,13.21
2016-07-06T01:38:26.548Z,13.14
2016-07-06T01:39:26.571Z,13.24
2016-07-06T01:40:27.491Z,13.18
2016-07-06T01:41:26.570Z,13.2
2016-07-06T01:42:26.569Z,13.21
2016-07-06T01:43:26.549Z,13.24
2016-07-06T01:44:26.516Z,13.2
2016-07-06T01:45:26.601Z,13.22
2016-07-06T01:46:26.804Z,13.18
2016-07-06T01:47:26.545Z,13.14
2016-07-06T01:48:26.565Z,13.11
2016-07-06T01:49:26.580Z,13.06
2016-07-06T01:50:26.573Z,13.14
2016-07-06T01:51:27.106Z,13.04
2016-07-06T01:52:27.056Z,13.03
2016-07-06T01:53:26.536Z,13.03
2016-07-06T01:54:26.551Z,13.04
2016-07-06T01:55:26.843Z,13
2016-07-06T01:56:26.574Z,13.02
2016-07-06T01:57:26.550Z,13.02
2016-07-06T01:58:26.708Z,12.96
2016-07-06T01:59:26.568Z,13.03
2016-07-06T02:00:26.543Z,12.96
2016-07-06T02:01:26.728Z,12.95
2016-07-06T02:02:26.599Z,13
2016-07-06T02:03:26.544Z,12.92
2016-07-06T02:04:26.582Z,12.85
2016-07-06T02:05:26.570Z,13.02
2016-07-06T02:06:26.539Z,12.96
2016-07-06T02:07:26.797Z,12.88
2016-07-06T02:08:26.623Z,12.89
2016-07-06T02:09:26.550Z,12.85
2016-07-06T02:10:26.815Z,12.79
2016-07-06T02:11:26.560Z,12.79
2016-07-06T02:12:26.609Z,12.88
2016-07-06T02:13:26.613Z,12.78
2016-07-06T02:14:26.622Z,12.77
2016-07-06T02:15:26.582Z,12.79
2016-07-06T02:16:26.575Z,12.78
2016-07-06T02:17:26.580Z,12.74
2016-07-06T02:18:26.560Z,12.77
2016-07-06T02:19:26.658Z,12.75
2016-07-06T02:20:26.586Z,12.71
2016-07-06T02:21:26.568Z,12.64
2016-07-06T02:22:26.553Z,12.66
2016-07-06T02:23:26.574Z,12.75
2016-07-06T02:24:26.605Z,12.82
2016-07-06T02:25:26.670Z,12.79
2016-07-06T02:26:26.573Z,12.79
2016-07-06T02:27:26.609Z,12.88
2016-07-06T02:28:26.574Z,12.82
2016-07-06T02:29:26.582Z,12.89
2016-07-06T02:30:26.621Z,12.79
2016-07-06T02:31:26.773Z,12.96
2016-07-06T02:32:26.614Z,12.97
2016-07-06T02:33:26.577Z,12.97
2016-07-06T02:34:26.736Z,12.95
2016-07-06T02:35:26.606Z,13.04
2016-07-06T02:36:26.677Z,13.06
2016-07-06T02:37:26.619Z,12.95
2016-07-06T02:38:26.610Z,13.06
2016-07-06T02:39:26.675Z,13.02
2016-07-06T02:40:27.445Z,12.99
2016-07-06T02:41:26.600Z,13.12
2016-07-06T02:42:26.608Z,13.15
2016-07-06T02:43:27.025Z,13.15
2016-07-06T02:44:26.616Z,13.17
2016-07-06T02:45:26.579Z,13.14
2016-07-06T02:46:26.935Z,13.18
2016-07-06T02:47:26.635Z,13.07
2016-07-06T02:48:26.592Z,13.17
2016-07-06T02:49:26.635Z,13.27
2016-07-06T02:50:26.575Z,13.24
2016-07-06T02:51:26.608Z,13.15
2016-07-06T02:52:26.605Z,13.18
2016-07-06T02:53:26.586Z,13.27
2016-07-06T02:54:26.617Z,13.24
2016-07-06T02:55:26.773Z,13.14
2016-07-06T02:56:26.584Z,13.2
2016-07-06T02:57:26.619Z,13.18
2016-07-06T02:58:26.905Z,13.15
2016-07-06T02:59:26.630Z,13.21
2016-07-06T03:00:26.617Z,13.27
2016-07-06T03:01:27.716Z,13.14
2016-07-06T03:02:26.615Z,13.18
2016-07-06T03:03:26.603Z,13.02
2016-07-06T03:04:26.850Z,13.12
2016-07-06T03:05:26.604Z,13.06
2016-07-06T03:06:26.608Z,13.09
2016-07-06T03:07:26.788Z,13.02
2016-07-06T03:08:26.611Z,12.99
2016-07-06T03:09:26.596Z,13.06
2016-07-06T03:10:27.004Z,12.89
2016-07-06T03:11:26.640Z,12.87
2016-07-06T03:12:26.630Z,13
2016-07-06T03:13:26.755Z,12.96
2016-07-06T03:14:26.630Z,12.95
2016-07-06T03:15:26.640Z,12.84
2016-07-06T03:16:27.202Z,12.88
2016-07-06T03:17:26.613Z,12.79
2016-07-06T03:18:26.618Z,12.96
2016-07-06T03:19:26.963Z,12.87
2016-07-06T03:20:26.585Z,12.97
2016-07-06T03:21:26.595Z,12.88
2016-07-06T03:22:26.821Z,12.81
2016-07-06T03:23:26.610Z,12.74
2016-07-06T03:24:26.585Z,12.77
2016-07-06T03:25:26.728Z,12.7
2016-07-06T03:26:26.616Z,12.71
2016-07-06T03:27:26.608Z,12.69
2016-07-06T03:28:26.848Z,12.74
2016-07-06T03:29:26.639Z,12.75
2016-07-06T03:30:26.629Z,12.67
2016-07-06T03:31:26.686Z,12.74
2016-07-06T03:32:26.698Z,12.67
2016-07-06T03:33:26.612Z,12.64
2016-07-06T03:34:26.733Z,12.6
2016-07-06T03:35:26.641Z,12.6
2016-07-06T03:36:26.673Z,12.6
2016-07-06T03:37:27.210Z,12.74
2016-07-06T03:38:26.641Z,12.52
2016-07-06T03:39:26.630Z,12.62
2016-07-06T03:40:26.804Z,12.66
2016-07-06T03:41:26.633Z,12.63
2016-07-06T03:42:26.644Z,12.64
2016-07-06T03:43:26.720Z,12.66
2016-07-06T03:44:26.637Z,12.81
2016-07-06T03:45:26.644Z,12.85
2016-07-06T03:46:27.378Z,12.74
2016-07-06T03:47:26.640Z,12.7
2016-07-06T03:48:26.616Z,12.84
2016-07-06T03:49:26.651Z,12.82
2016-07-06T03:50:26.645Z,12.75
2016-07-06T03:51:26.605Z,12.75
2016-07-06T03:52:26.640Z,12.82
2016-07-06T03:53:26.619Z,12.88
2016-07-06T03:54:26.647Z,12.79
2016-07-06T03:55:26.828Z,12.75
2016-07-06T03:56:26.663Z,12.71
2016-07-06T03:57:26.649Z,12.74
2016-07-06T03:58:26.667Z,12.79
2016-07-06T03:59:26.663Z,12.75
2016-07-06T04:00:26.637Z,12.67
2016-07-06T04:01:26.876Z,12.77
2016-07-06T04:02:26.647Z,12.92
2016-07-06T04:03:26.637Z,13.06
2016-07-06T04:04:27.322Z,12.89
2016-07-06T04:05:27.401Z,12.92
2016-07-06T04:06:26.675Z,12.89
2016-07-06T04:07:26.637Z,12.82
2016-07-06T04:08:26.665Z,12.74
2016-07-06T04:09:26.650Z,12.71
2016-07-06T04:10:27.142Z,12.79
2016-07-06T04:11:26.646Z,12.77
2016-07-06T04:12:26.640Z,12.81
2016-07-06T04:13:26.676Z,12.66
2016-07-06T04:14:26.653Z,12.74
2016-07-06T04:15:26.670Z,12.64
2016-07-06T04:16:26.669Z,12.75
2016-07-06T04:17:26.648Z,12.75
2016-07-06T04:18:26.660Z,12.81
2016-07-06T04:19:27.860Z,12.77
2016-07-06T04:20:26.671Z,12.78
2016-07-06T04:21:26.644Z,12.7
2016-07-06T04:22:27.149Z,12.82
2016-07-06T04:23:26.647Z,12.78
2016-07-06T04:24:26.664Z,12.79
2016-07-06T04:25:26.929Z,12.81
2016-07-06T04:26:26.699Z,12.92
2016-07-06T04:27:26.673Z,12.87
2016-07-06T04:28:27.385Z,12.95
2016-07-06T04:29:26.696Z,12.88
2016-07-06T04:30:26.688Z,12.87
2016-07-06T04:31:26.771Z,12.99
2016-07-06T04:32:26.671Z,12.84
2016-07-06T04:33:26.729Z,12.93
2016-07-06T04:34:26.653Z,12.93
2016-07-06T04:35:26.840Z,12.87
2016-07-06T04:36:26.723Z,12.96
2016-07-06T04:37:26.854Z,12.95
2016-07-06T04:38:26.764Z,13.04
2016-07-06T04:39:26.707Z,12.96
2016-07-06T04:40:27.042Z,13.02
2016-07-06T04:41:26.726Z,13.12
2016-07-06T04:42:26.735Z,13.21
2016-07-06T04:43:26.681Z,13.43
2016-07-06T04:44:26.696Z,13.49
2016-07-06T04:45:26.767Z,13.7
2016-07-06T04:46:27.744Z,13.76
2016-07-06T04:47:26.697Z,13.83
2016-07-06T04:48:26.743Z,13.95
2016-07-06T04:49:27.095Z,14.07
2016-07-06T04:50:26.736Z,13.89
2016-07-06T04:51:26.825Z,14.13
2016-07-06T04:52:26.858Z,14.37
2016-07-06T04:53:26.664Z,14.43
2016-07-06T04:54:26.682Z,14.64
2016-07-06T04:55:26.914Z,14.65
2016-07-06T04:56:26.707Z,14.84
2016-07-06T04:57:26.697Z,14.86
2016-07-06T04:58:26.772Z,14.99
2016-07-06T04:59:26.737Z,14.93
2016-07-06T05:00:26.683Z,15.13
2016-07-06T05:02:31.364Z,15.24
2016-07-06T05:02:43.093Z,15.26
2016-07-06T05:03:43.123Z,15.3
2016-07-06T05:04:43.090Z,15.24
2016-07-06T05:05:43.106Z,15.39
2016-07-06T05:06:43.112Z,15.3
2016-07-06T05:07:43.137Z,15.33
2016-07-06T05:08:43.107Z,15.36
2016-07-06T05:09:43.111Z,15.48
2016-07-06T05:10:43.068Z,15.42
2016-07-06T05:11:43.136Z,15.38
2016-07-06T05:12:43.862Z,15.46
2016-07-06T05:13:43.086Z,15.45
2016-07-06T05:14:43.143Z,15.48
2016-07-06T05:15:43.199Z,15.48
2016-07-06T05:16:43.097Z,15.33
2016-07-06T05:17:43.184Z,15.6
2016-07-06T05:18:43.327Z,15.64
2016-07-06T05:19:43.141Z,15.64
2016-07-06T05:20:43.148Z,15.63
2016-07-06T05:21:43.094Z,15.72
2016-07-06T05:22:43.117Z,15.82
2016-07-06T05:23:43.098Z,15.86
2016-07-06T05:24:43.133Z,15.92
2016-07-06T05:25:43.107Z,15.78
2016-07-06T05:26:43.143Z,15.92
2016-07-06T05:27:43.174Z,15.99
2016-07-06T05:28:43.114Z,15.96
2016-07-06T05:29:43.118Z,16.03
2016-07-06T05:30:43.138Z,16.07
2016-07-06T05:31:43.230Z,16.04
2016-07-06T05:32:43.091Z,16.03
2016-07-06T05:33:43.113Z,16.01
2016-07-06T05:34:43.145Z,16.12
2016-07-06T05:35:43.155Z,16.07
2016-07-06T05:36:43.277Z,16.25
2016-07-06T05:37:43.112Z,16.3
2016-07-06T05:38:43.146Z,16.25
2016-07-06T05:39:43.216Z,16.37
2016-07-06T05:40:43.116Z,16.26
2016-07-06T05:41:43.142Z,16.33
2016-07-06T05:42:43.140Z,16.34
2016-07-06T05:43:43.117Z,16.3
2016-07-06T05:44:43.289Z,16.2
2016-07-06T05:45:43.412Z,16.3
2016-07-06T05:46:43.157Z,16.22
2016-07-06T05:47:43.182Z,16.26
2016-07-06T05:48:43.144Z,16.2
2016-07-06T05:49:43.177Z,16.18
2016-07-06T05:50:43.121Z,16.04
2016-07-06T05:51:43.130Z,16.18
2016-07-06T05:52:43.141Z,16.12
2016-07-06T05:53:43.147Z,16.23
2016-07-06T05:54:43.237Z,16.3
2016-07-06T05:55:43.147Z,16.31
2016-07-06T05:56:43.188Z,16.35
2016-07-06T05:57:43.210Z,16.48
2016-07-06T05:58:43.158Z,16.74
2016-07-06T05:59:43.149Z,16.68
2016-07-06T06:00:43.205Z,16.53
2016-07-06T06:01:43.192Z,16.55
2016-07-06T06:02:43.150Z,16.58
2016-07-06T06:03:43.133Z,16.59
2016-07-06T06:04:44.270Z,16.63
2016-07-06T06:05:43.134Z,16.73
2016-07-06T06:06:43.201Z,16.96
2016-07-06T06:07:43.196Z,16.78
2016-07-06T06:08:43.159Z,16.83
2016-07-06T06:09:43.146Z,16.78
2016-07-06T06:10:43.177Z,16.77
2016-07-06T06:11:43.587Z,16.81
2016-07-06T06:12:43.161Z,16.88
2016-07-06T06:13:43.241Z,16.92
2016-07-06T06:14:43.303Z,17.11
2016-07-06T06:15:43.177Z,17.18
2016-07-06T06:16:43.134Z,17.08
2016-07-06T06:17:43.184Z,17.1
2016-07-06T06:18:43.178Z,17.1
2016-07-06T06:19:43.178Z,17.15
2016-07-06T06:20:43.208Z,17.3
2016-07-06T06:21:45.827Z,17.51
2016-07-06T06:22:43.251Z,17.63
2016-07-06T06:23:43.142Z,17.46
2016-07-06T06:24:43.179Z,17.44
2016-07-06T06:25:43.254Z,17.54
2016-07-06T06:26:43.211Z,17.43
2016-07-06T06:27:43.542Z,17.73
2016-07-06T06:28:43.186Z,17.89
2016-07-06T06:29:43.195Z,18.28
2016-07-06T06:30:43.195Z,18.91
2016-07-06T06:31:43.167Z,19.58
2016-07-06T06:32:43.169Z,19.13
2016-07-06T06:33:43.246Z,18.83
2016-07-06T06:34:43.775Z,18.65
2016-07-06T06:35:43.282Z,19.57
2016-07-06T06:36:43.205Z,20.58
2016-07-06T06:37:43.220Z,20.87
2016-07-06T06:38:43.218Z,20.54
2016-07-06T06:39:43.218Z,20.16
2016-07-06T06:40:43.239Z,19.65
2016-07-06T06:41:43.276Z,19.36
2016-07-06T06:42:43.860Z,19.97
2016-07-06T06:43:43.236Z,20.25
2016-07-06T06:44:43.194Z,21.19
2016-07-06T06:45:43.273Z,22.07
2016-07-06T06:46:43.236Z,22.86
2016-07-06T06:47:43.210Z,23.27
2016-07-06T06:48:43.176Z,23.35
2016-07-06T06:49:43.184Z,22.72
2016-07-06T06:50:43.393Z,22.07
2016-07-06T06:51:43.175Z,21.54
2016-07-06T06:52:43.208Z,21.29
2016-07-06T06:53:43.197Z,22.06
2016-07-06T06:54:43.180Z,22.9
2016-07-06T06:55:43.189Z,23.52
2016-07-06T06:56:43.201Z,23.55
2016-07-06T06:57:43.213Z,23.76
2016-07-06T06:58:43.174Z,23.87
2016-07-06T06:59:43.192Z,23.52
2016-07-06T07:00:43.235Z,24.2
2016-07-06T07:01:43.173Z,24.53
2016-07-06T07:02:43.237Z,24.26
2016-07-06T07:03:43.224Z,24.49
2016-07-06T07:04:43.261Z,24.31
2016-07-06T07:05:43.269Z,24.39
2016-07-06T07:06:43.259Z,24.67
2016-07-06T07:07:43.188Z,25.2
2016-07-06T07:08:43.244Z,25.61
2016-07-06T07:09:43.190Z,26.06
2016-07-06T07:10:43.243Z,26.42
2016-07-06T07:11:43.180Z,26.77
2016-07-06T07:12:43.240Z,27.02
2016-07-06T07:13:43.184Z,26.91
2016-07-06T07:14:43.203Z,26.52
2016-07-06T07:15:43.239Z,26.68
2016-07-06T07:16:43.204Z,26.89
2016-07-06T07:17:43.206Z,26.96
2016-07-06T07:18:43.261Z,26.44
2016-07-06T07:19:43.209Z,25.5
2016-07-06T07:20:43.198Z,24.85
2016-07-06T07:21:43.270Z,24.35
2016-07-06T07:22:43.247Z,25.09
2016-07-06T07:23:43.256Z,25.61
2016-07-06T07:24:43.235Z,26.2
2016-07-06T07:25:43.258Z,26.32
2016-07-06T07:26:43.235Z,26.84
2016-07-06T07:27:43.242Z,27.17
2016-07-06T07:28:43.248Z,26.44
2016-07-06T07:29:43.254Z,27.01
2016-07-06T07:30:43.300Z,27.2
2016-07-06T07:31:43.247Z,27.32
2016-07-06T07:32:43.243Z,27.61
2016-07-06T07:33:43.254Z,27.84
2016-07-06T07:34:43.247Z,27.51
2016-07-06T07:35:43.234Z,26.58
2016-07-06T07:36:43.222Z,26.84
2016-07-06T07:37:43.271Z,27.01
2016-07-06T07:38:43.272Z,26.91
2016-07-06T07:39:43.227Z,27.04
2016-07-06T07:40:43.246Z,27.31
2016-07-06T07:41:43.228Z,27.53
2016-07-06T07:42:43.224Z,27.84
2016-07-06T07:43:43.284Z,27.64
2016-07-06T07:44:43.267Z,27.16
2016-07-06T07:45:43.266Z,26.99
2016-07-06T07:46:43.369Z,26.04
2016-07-06T07:47:43.279Z,25.57
2016-07-06T07:48:43.330Z,25.06
2016-07-06T07:49:43.273Z,24.57
2016-07-06T07:50:43.244Z,24.12
2016-07-06T07:51:43.279Z,23.92
2016-07-06T07:52:43.242Z,23.86
2016-07-06T07:53:43.272Z,24.13
2016-07-06T07:54:43.313Z,24.67
2016-07-06T07:55:43.290Z,25.25
2016-07-06T07:56:43.268Z,24.88
2016-07-06T07:57:43.607Z,25.02
2016-07-06T07:58:43.248Z,25
2016-07-06T07:59:43.296Z,24.69
2016-07-06T08:00:43.453Z,25.12
2016-07-06T08:01:43.257Z,25.42
2016-07-06T08:02:43.263Z,25.62
2016-07-06T08:03:43.270Z,25.89
2016-07-06T08:04:43.274Z,25.32
2016-07-06T08:05:43.347Z,24.59
2016-07-06T08:06:43.276Z,24.08
2016-07-06T08:07:43.882Z,24.23
2016-07-06T08:08:43.317Z,24.41
2016-07-06T08:09:43.473Z,24.63
2016-07-06T08:10:43.303Z,24.91
2016-07-06T08:11:43.321Z,25.15
2016-07-06T08:12:43.342Z,24.68
2016-07-06T08:13:43.311Z,24.41
2016-07-06T08:14:43.301Z,23.82
2016-07-06T08:15:43.332Z,23.23
2016-07-06T08:16:43.335Z,22.68
2016-07-06T08:17:43.366Z,22.82
2016-07-06T08:18:43.363Z,22.78
2016-07-06T08:19:43.333Z,23.14
2016-07-06T08:20:43.344Z,23.53
2016-07-06T08:21:43.373Z,22.78
2016-07-06T08:22:43.308Z,22.52
2016-07-06T08:23:43.314Z,22.29
2016-07-06T08:24:43.279Z,21.94
2016-07-06T08:25:43.361Z,21.66
2016-07-06T08:26:43.342Z,21.69
2016-07-06T08:27:43.302Z,22.28
2016-07-06T08:28:43.288Z,22.44
2016-07-06T08:29:43.340Z,22.09
2016-07-06T08:30:43.318Z,22.1
2016-07-06T08:31:43.348Z,22.2
2016-07-06T08:32:43.304Z,22.37
2016-07-06T08:33:43.276Z,22.43
2016-07-06T08:34:43.303Z,22.47
2016-07-06T08:35:43.297Z,22.56
2016-07-06T08:36:43.286Z,22.43
2016-07-06T08:37:43.314Z,22.5
2016-07-06T08:38:43.317Z,22.49
2016-07-06T08:39:43.304Z,22.64
2016-07-06T08:40:43.329Z,22.04
2016-07-06T08:41:43.324Z,21.85
2016-07-06T08:42:43.281Z,21.91
2016-07-06T08:43:43.326Z,21.9
2016-07-06T08:44:43.297Z,22.13
2016-07-06T08:45:43.414Z,22.06
2016-07-06T08:46:43.330Z,22.09
2016-07-06T08:47:43.579Z,22.25
2016-07-06T08:48:43.360Z,22.02
2016-07-06T08:49:43.331Z,21.98
2016-07-06T08:50:43.336Z,21.82
2016-07-06T08:51:43.310Z,21.63
2016-07-06T08:52:43.319Z,21.57
2016-07-06T08:53:43.344Z,21.46
2016-07-06T08:54:43.309Z,21.51
2016-07-06T08:55:43.366Z,21.67
2016-07-06T08:56:43.891Z,21.71
2016-07-06T08:57:43.313Z,21.48
2016-07-06T08:58:43.350Z,21.38
2016-07-06T08:59:43.327Z,21.35
2016-07-06T09:00:43.581Z,21.41
2016-07-06T09:01:43.310Z,21.27
2016-07-06T09:02:43.345Z,21.34
2016-07-06T09:03:43.320Z,21.42
2016-07-06T09:04:43.422Z,21.48
2016-07-06T09:05:43.372Z,21.61
2016-07-06T09:06:43.355Z,21.75
2016-07-06T09:07:43.357Z,21.5
2016-07-06T09:08:43.450Z,21.64
2016-07-06T09:09:43.401Z,21.64
2016-07-06T09:10:43.398Z,21.39
2016-07-06T09:11:43.371Z,21.51
2016-07-06T09:12:43.345Z,21.63
2016-07-06T09:13:43.412Z,21.63
2016-07-06T09:14:43.391Z,21.81
2016-07-06T09:15:43.349Z,21.64
2016-07-06T09:16:43.364Z,21.53
2016-07-06T09:17:43.442Z,21.67
2016-07-06T09:18:43.357Z,21.74
2016-07-06T09:19:43.336Z,21.59
2016-07-06T09:20:43.359Z,21.56
2016-07-06T09:21:43.349Z,21.56
2016-07-06T09:22:43.368Z,21.41
2016-07-06T09:23:43.363Z,21.41
2016-07-06T09:24:43.334Z,21.45
2016-07-06T09:25:43.853Z,21.38
2016-07-06T09:26:43.366Z,21.45
2016-07-06T09:27:43.354Z,21.29
2016-07-06T09:28:43.342Z,21.32
2016-07-06T09:29:43.366Z,21.32
2016-07-06T09:30:43.405Z,21.41
2016-07-06T09:31:43.356Z,21.26
2016-07-06T09:32:43.950Z,21.42
2016-07-06T09:33:43.395Z,21.39
2016-07-06T09:34:43.340Z,21.35
2016-07-06T09:35:43.399Z,21.57
2016-07-06T09:36:43.341Z,21.69
2016-07-06T09:37:43.368Z,21.72
2016-07-06T09:38:43.355Z,21.79
2016-07-06T09:39:43.361Z,21.82
2016-07-06T09:40:43.406Z,21.97
2016-07-06T09:41:43.395Z,21.87
2016-07-06T09:42:43.430Z,22.01
2016-07-06T09:43:43.987Z,21.94
2016-07-06T09:44:43.439Z,22.06
2016-07-06T09:45:43.524Z,22.07
2016-07-06T09:46:44.137Z,22.29
2016-07-06T09:47:43.478Z,22.14
2016-07-06T09:48:43.376Z,21.9
2016-07-06T09:49:43.546Z,21.95
2016-07-06T09:50:43.999Z,21.9
2016-07-06T09:51:43.392Z,21.72
2016-07-06T09:52:43.398Z,21.72
2016-07-06T09:53:43.398Z,21.61
2016-07-06T09:54:44.209Z,21.61
2016-07-06T09:55:43.380Z,21.63
2016-07-06T09:56:43.426Z,21.94
2016-07-06T09:57:45.055Z,22.12
2016-07-06T09:58:43.382Z,22.35
2016-07-06T09:59:44.476Z,22.57
2016-07-06T10:00:43.427Z,22.75
2016-07-06T10:01:43.376Z,22.44
2016-07-06T10:02:43.367Z,22.41
2016-07-06T10:03:43.455Z,22.23
2016-07-06T10:04:43.395Z,22.2
2016-07-06T10:05:43.373Z,22.09
2016-07-06T10:06:43.382Z,22.1
2016-07-06T10:07:43.451Z,21.81
2016-07-06T10:08:43.395Z,21.66
2016-07-06T10:09:43.427Z,21.66
2016-07-06T10:10:43.360Z,21.54
2016-07-06T10:11:43.430Z,21.42
2016-07-06T10:12:43.377Z,21.41
2016-07-06T10:13:43.392Z,21.34
2016-07-06T10:14:43.415Z,21.2
2016-07-06T10:15:43.430Z,21.14
2016-07-06T10:16:43.402Z,21.05
2016-07-06T10:17:43.427Z,20.84
2016-07-06T10:18:43.462Z,20.8
2016-07-06T10:19:43.402Z,20.68
2016-07-06T10:20:43.388Z,20.58
2016-07-06T10:21:43.459Z,20.51
2016-07-06T10:22:43.429Z,20.62
2016-07-06T10:23:43.399Z,20.61
2016-07-06T10:24:43.534Z,20.91
2016-07-06T10:25:43.464Z,20.99
2016-07-06T10:26:43.430Z,20.86
2016-07-06T10:27:43.389Z,20.71
2016-07-06T10:28:43.383Z,20.83
2016-07-06T10:29:43.626Z,20.87
2016-07-06T10:30:44.148Z,21.05
2016-07-06T10:31:43.461Z,21.17
2016-07-06T10:32:43.466Z,21.38
2016-07-06T10:33:43.451Z,21.5
2016-07-06T10:34:43.627Z,21.66
2016-07-06T10:35:43.537Z,21.72
2016-07-06T10:36:43.380Z,21.74
2016-07-06T10:37:43.496Z,21.81
2016-07-06T10:38:43.571Z,22.01
2016-07-06T10:39:43.437Z,22.16
2016-07-06T10:40:44.106Z,22.32
2016-07-06T10:41:43.499Z,22.44
2016-07-06T10:42:43.534Z,22.57
2016-07-06T10:43:43.475Z,22.69
2016-07-06T10:44:43.465Z,22.99
2016-07-06T10:45:43.499Z,23.09
2016-07-06T10:46:43.439Z,23.19
2016-07-06T10:47:43.616Z,23.19
2016-07-06T10:48:43.524Z,23.24
2016-07-06T10:49:43.460Z,23.15
2016-07-06T10:50:43.494Z,23.17
2016-07-06T10:51:43.473Z,23.55
2016-07-06T10:52:43.492Z,23.45
2016-07-06T10:53:43.434Z,23.53
2016-07-06T10:54:43.510Z,23.52
2016-07-06T10:55:43.482Z,23.49
2016-07-06T10:56:43.590Z,23.14
2016-07-06T10:57:43.528Z,23.12
2016-07-06T10:58:43.902Z,23.02
2016-07-06T10:59:43.467Z,22.96
2016-07-06T11:00:43.582Z,23.01
2016-07-06T11:01:43.485Z,23.14
2016-07-06T11:02:43.724Z,23.38
2016-07-06T11:03:43.586Z,23.43
2016-07-06T11:04:43.547Z,23.39
2016-07-06T11:05:43.538Z,23.35
2016-07-06T11:06:43.672Z,23.53
2016-07-06T11:07:43.596Z,23.6
2016-07-06T11:08:43.611Z,23.65
2016-07-06T11:09:43.536Z,23.5
2016-07-06T11:10:43.974Z,23.32
2016-07-06T11:11:43.569Z,23.26
2016-07-06T11:12:43.636Z,22.97
2016-07-06T11:13:43.612Z,23.04
2016-07-06T11:14:43.530Z,22.71
2016-07-06T11:51:00.217Z,24.2
2016-07-06T11:51:43.573Z,24.35
2016-07-06T11:52:43.632Z,24.41
2016-07-06T11:53:43.628Z,24.19
2016-07-06T11:54:43.605Z,24.08
2016-07-06T11:55:44.301Z,24.2
2016-07-06T11:56:43.588Z,24.1
2016-07-06T11:57:43.552Z,24.02
2016-07-06T11:58:43.533Z,24.12
2016-07-06T11:59:43.656Z,24.04
2016-07-06T12:00:43.716Z,23.87
2016-07-06T12:01:43.609Z,23.8
2016-07-06T12:02:43.566Z,23.9
2016-07-06T12:03:43.559Z,23.87
2016-07-06T12:04:43.587Z,23.7
2016-07-06T12:05:43.624Z,23.58
2016-07-06T12:06:43.643Z,23.42
2016-07-06T12:07:43.559Z,23.35
2016-07-06T12:08:43.569Z,23.5
2016-07-06T12:09:43.624Z,23.26
2016-07-06T12:10:43.625Z,23.15
2016-07-06T12:11:43.596Z,23.23
2016-07-06T12:12:44.217Z,23.24
2016-07-06T12:13:43.566Z,22.86
2016-07-06T12:14:43.651Z,22.94
2016-07-06T12:15:43.583Z,22.78
2016-07-06T12:16:43.591Z,22.69
2016-07-06T12:17:43.761Z,22.8
2016-07-06T12:18:43.588Z,22.77
2016-07-06T12:19:43.614Z,22.84
2016-07-06T12:20:43.592Z,22.93
2016-07-06T12:21:43.585Z,22.9
2016-07-06T12:22:43.671Z,23.07
2016-07-06T12:23:43.634Z,22.99
2016-07-06T12:24:43.589Z,23.04
2016-07-06T12:25:43.627Z,23.34
2016-07-06T12:26:43.677Z,23.4
2016-07-06T12:27:43.618Z,23.57
2016-07-06T12:28:43.665Z,23.61
2016-07-06T12:29:43.565Z,23.67
2016-07-06T12:30:43.603Z,23.7
2016-07-06T12:31:43.634Z,23.7
2016-07-06T12:32:43.653Z,23.72
2016-07-06T12:33:43.687Z,23.82
2016-07-06T12:34:43.628Z,23.77
2016-07-06T12:35:43.815Z,23.67
2016-07-06T12:36:43.614Z,23.8
2016-07-06T12:37:43.649Z,23.75
2016-07-06T12:38:43.644Z,23.79
2016-07-06T12:39:43.660Z,23.64
2016-07-06T12:40:43.601Z,23.64
2016-07-06T12:41:43.641Z,23.8
2016-07-06T12:42:43.613Z,23.64
2016-07-06T12:43:44.028Z,23.58
2016-07-06T12:44:43.679Z,23.55
2016-07-06T12:45:43.701Z,23.57
2016-07-06T12:46:43.685Z,23.68
2016-07-06T12:47:43.604Z,23.77
2016-07-06T12:48:43.612Z,23.76
2016-07-06T12:49:43.634Z,23.95
2016-07-06T12:50:43.596Z,23.94
2016-07-06T12:51:44.100Z,23.83
2016-07-06T12:52:43.596Z,23.76
2016-07-06T12:53:43.587Z,23.7
2016-07-06T12:54:43.695Z,23.77
2016-07-06T12:55:43.788Z,23.79
2016-07-06T12:56:43.628Z,23.7
2016-07-06T12:57:43.745Z,23.75
2016-07-06T12:58:43.590Z,23.65
2016-07-06T12:59:43.986Z,23.7
2016-07-06T13:00:43.624Z,23.61
2016-07-06T13:01:43.646Z,23.64
2016-07-06T13:02:43.626Z,23.55
2016-07-06T13:03:43.660Z,23.61
2016-07-06T13:04:43.604Z,23.7
2016-07-06T13:05:43.615Z,23.64
2016-07-06T13:06:43.847Z,23.68
2016-07-06T13:07:43.685Z,23.62
2016-07-06T13:08:43.673Z,23.85
2016-07-06T13:09:43.683Z,23.8
2016-07-06T13:10:43.658Z,23.72
2016-07-06T13:11:43.666Z,23.71
2016-07-06T13:12:43.663Z,23.71
2016-07-06T13:13:43.623Z,23.72
2016-07-06T13:14:44.305Z,23.76
2016-07-06T13:15:43.642Z,23.6
2016-07-06T13:16:43.653Z,23.64
2016-07-06T13:17:43.626Z,23.46
2016-07-06T13:18:43.611Z,23.32
2016-07-06T13:19:43.690Z,23.5
2016-07-06T13:20:43.655Z,23.46
2016-07-06T13:21:43.760Z,23.55
2016-07-06T13:22:43.673Z,23.65
2016-07-06T13:23:43.800Z,23.67
2016-07-06T13:24:43.748Z,23.71
2016-07-06T13:25:43.780Z,23.92
2016-07-06T13:26:43.623Z,23.97
2016-07-06T13:27:43.687Z,24.22
2016-07-06T13:28:43.637Z,24.32
2016-07-06T13:29:43.610Z,24.38
2016-07-06T13:30:44.150Z,24.31